KAUW/AUW METAR and TAF weather

Enter ICAO airport designator
Station Type Date Time Source
KAUW METAR 2022/05/24 10:54 UTC NOAA

KAUW 241054Z AUTO 09003KT 10SM CLR 06/03 A3027 RMK AO2 SLP261 T00560028


Station Type Date Time Source
KAUW Decoded METAR 2022/05/24 10:54 UTC NOAA

WAUSAU DOWNTOWN AIRPORT, WI, United States (KAUW) 44-56N 089-37W 362M
May 24, 2022 - 06:54 AM EDT / 2022.05.24 1054 UTC
Wind: from the E (090 degrees) at 3 MPH (3 KT):0
Visibility: 10 mile(s):0
Sky conditions: clear
Temperature: 42.1 F (5.6 C)
Dew Point: 37.0 F (2.8 C)
Relative Humidity: 82%
Pressure (altimeter): 30.27 in. Hg (1025 hPa)
ob: KAUW 241054Z AUTO 09003KT 10SM CLR 06/03 A3027 RMK AO2 SLP261 T00560028
cycle: 11

Station Type Date Time Source
KAUW TAF 2022/05/24 06:22 UTC NOAA

TAF KAUW 240520Z 2406/2506 12004KT P6SM BKN200
FM241500 13008KT P6SM SCT060
FM250400 10006KT P6SM BKN100

Example: see airport list